Time;durP1;ratioP1;P1;durP2;ratioP2;P2;SDS_P1;SDS_P2;PMS_P1;PMS_P2;Temp;Humidity;BMP_temperature;BMP_pressure;BME280_temperature;BME280_humidity;BME280_pressure;Samples;Min_cycle;Max_cycle;Signal;HPM_P1;HPM_P2
2021/04/09 00:00:18;;;;;;;11.47;4.70;;;6.30;1.00;;;;;;5052506;28;21222;-80
2021/04/09 00:02:45;;;;;;;6.30;3.70;;;6.30;1.00;;;;;;5053171;28;20485;-79
2021/04/09 00:05:15;;;;;;;5.83;3.33;;;6.20;1.00;;;;;;5051060;28;20555;-79
2021/04/09 00:07:42;;;;;;;4.70;3.28;;;6.20;1.00;;;;;;5057842;28;20466;-80
2021/04/09 00:10:11;;;;;;;3.90;3.03;;;6.20;1.00;;;;;;5050207;28;20231;-80
2021/04/09 00:12:40;;;;;;;5.07;3.73;;;6.20;1.00;;;;;;5058252;28;20226;-81
2021/04/09 00:15:10;;;;;;;6.45;3.10;;;6.20;1.00;;;;;;5051001;28;20496;-82
2021/04/09 00:17:37;;;;;;;4.20;3.77;;;6.10;1.00;;;;;;5043779;28;20659;-82
2021/04/09 00:20:06;;;;;;;3.90;3.50;;;6.10;1.00;;;;;;5050570;28;20471;-80
2021/04/09 00:22:33;;;;;;;5.82;3.38;;;6.10;1.00;;;;;;5050470;28;20314;-81
2021/04/09 00:25:00;;;;;;;5.35;3.45;;;6.00;1.00;;;;;;5057087;28;20216;-79
2021/04/09 00:27:28;;;;;;;4.88;3.22;;;6.00;1.00;;;;;;5051374;28;20204;-80
2021/04/09 00:29:56;;;;;;;4.70;3.35;;;6.00;1.00;;;;;;5051352;28;20220;-80
2021/04/09 00:32:23;;;;;;;8.25;3.85;;;6.00;1.00;;;;;;5048763;28;20224;-79
2021/04/09 00:34:51;;;;;;;3.97;3.65;;;6.00;1.00;;;;;;5058044;28;20684;-79
2021/04/09 00:37:18;;;;;;;5.80;3.70;;;5.90;1.00;;;;;;5053309;28;20227;-79
2021/04/09 00:39:45;;;;;;;7.45;3.85;;;5.90;1.00;;;;;;5052668;28;20686;-80
2021/04/09 00:42:17;;;;;;;5.80;3.97;;;5.90;1.00;;;;;;5054474;28;20236;-79
2021/04/09 00:44:44;;;;;;;5.30;3.13;;;5.90;1.00;;;;;;5044442;28;20701;-80
2021/04/09 00:47:13;;;;;;;4.95;3.78;;;6.10;1.00;;;;;;5044501;28;20685;-81
2021/04/09 00:49:41;;;;;;;5.10;4.20;;;5.80;1.00;;;;;;5053712;28;20264;-79
2021/04/09 00:52:08;;;;;;;6.40;3.88;;;5.80;1.00;;;;;;5054720;28;20239;-82
2021/04/09 00:54:36;;;;;;;6.30;4.57;;;5.80;1.00;;;;;;5058227;28;20297;-80
2021/04/09 00:57:05;;;;;;;6.57;3.88;;;5.70;1.00;;;;;;5054795;28;20239;-79
2021/04/09 00:59:34;;;;;;;5.93;4.28;;;5.70;1.00;;;;;;5055745;28;20201;-80
2021/04/09 01:02:02;;;;;;;6.22;5.07;;;5.60;1.00;;;;;;5056808;28;20230;-79
2021/04/09 01:04:31;;;;;;;6.88;3.70;;;5.70;1.00;;;;;;5050887;28;20212;-79
2021/04/09 01:06:59;;;;;;;6.65;3.45;;;5.90;1.00;;;;;;5052540;28;20200;-79
2021/04/09 01:09:26;;;;;;;6.63;4.72;;;5.70;1.00;;;;;;5056042;28;20260;-79
2021/04/09 01:11:54;;;;;;;5.72;4.32;;;5.80;1.00;;;;;;5061968;28;20225;-79
2021/04/09 01:14:21;;;;;;;5.65;4.00;;;5.80;1.00;;;;;;5061081;28;20585;-80
2021/04/09 01:16:53;;;;;;;9.03;3.87;;;5.90;1.00;;;;;;5054499;28;20213;-80
2021/04/09 01:19:51;;;;;;;4.23;3.63;;;5.70;1.00;;;;;;5050278;28;21389;-80
2021/04/09 01:22:19;;;;;;;6.20;3.50;;;5.70;1.00;;;;;;5060452;28;20486;-78
2021/04/09 01:25:20;;;;;;;6.40;4.40;;;5.60;1.00;;;;;;5046096;28;20708;-79
2021/04/09 01:28:00;;;;;;;6.00;4.15;;;5.70;1.00;;;;;;5056450;28;20207;-80
2021/04/09 01:31:05;;;;;;;6.75;4.10;;;5.70;1.00;;;;;;5049541;28;20224;-81
2021/04/09 01:33:36;;;;;;;8.90;4.50;;;5.50;1.00;;;;;;5056214;28;20224;-80
2021/04/09 01:36:09;;;;;;;8.40;4.40;;;5.50;1.00;;;;;;5046000;28;20320;-79
2021/04/09 01:38:41;;;;;;;5.40;3.35;;;5.60;1.00;;;;;;5059768;28;20205;-80
2021/04/09 01:41:12;;;;;;;5.95;4.18;;;5.60;1.00;;;;;;5053693;28;20212;-80
2021/04/09 01:43:43;;;;;;;5.40;3.50;;;5.70;1.00;;;;;;5059224;28;20244;-80
2021/04/09 01:46:13;;;;;;;3.38;2.90;;;5.80;1.00;;;;;;5052644;28;20206;-80
2021/04/09 01:48:43;;;;;;;4.25;3.47;;;6.00;1.00;;;;;;5060787;28;20218;-79
2021/04/09 01:51:14;;;;;;;6.40;3.03;;;6.00;1.00;;;;;;5054210;28;20230;-81
2021/04/09 01:53:44;;;;;;;4.50;2.65;;;6.00;1.00;;;;;;5056064;28;20522;-78
2021/04/09 01:56:14;;;;;;;6.60;3.20;;;6.10;1.00;;;;;;5062103;28;20584;-78
2021/04/09 01:58:42;;;;;;;3.40;2.50;;;6.10;1.00;;;;;;5060905;28;20208;-79
2021/04/09 02:01:11;;;;;;;4.68;3.03;;;6.10;1.00;;;;;;5057830;28;20473;-79
2021/04/09 02:03:39;;;;;;;4.07;3.30;;;6.00;1.00;;;;;;5054519;28;20228;-79
2021/04/09 02:06:08;;;;;;;4.82;2.97;;;6.00;1.00;;;;;;5044266;28;20204;-79
2021/04/09 02:08:37;;;;;;;2.92;2.58;;;6.00;1.00;;;;;;5056250;28;20764;-80
2021/04/09 02:11:06;;;;;;;5.63;3.53;;;6.00;1.00;;;;;;5048932;28;20207;-77
2021/04/09 02:13:35;;;;;;;3.90;3.07;;;6.00;1.00;;;;;;5063049;28;20273;-82
2021/04/09 02:16:04;;;;;;;3.13;2.60;;;6.10;1.00;;;;;;5061848;28;20994;-79
2021/04/09 02:18:31;;;;;;;3.50;2.60;;;6.10;1.00;;;;;;5059559;28;21002;-81
2021/04/09 02:21:00;;;;;;;7.17;4.03;;;6.10;1.00;;;;;;5056700;28;20462;-81
2021/04/09 02:23:28;;;;;;;3.10;2.70;;;6.10;1.00;;;;;;5057315;28;20495;-81
2021/04/09 02:25:56;;;;;;;3.63;3.33;;;6.10;1.00;;;;;;5055430;28;20479;-81
2021/04/09 02:28:25;;;;;;;6.23;3.17;;;6.20;1.00;;;;;;5056670;28;20472;-81
2021/04/09 02:31:06;;;;;;;3.03;2.80;;;6.40;1.00;;;;;;5047347;28;20496;-82
2021/04/09 02:33:34;;;;;;;4.07;3.70;;;6.20;1.00;;;;;;5052198;28;20484;-80
2021/04/09 02:36:08;;;;;;;3.77;3.17;;;6.20;1.00;;;;;;5063254;28;20559;-81
2021/04/09 02:38:37;;;;;;;3.43;3.13;;;6.30;1.00;;;;;;5052755;28;20467;-81
2021/04/09 02:41:05;;;;;;;3.97;2.83;;;6.30;1.00;;;;;;5056071;28;20524;-81
2021/04/09 02:43:32;;;;;;;7.10;3.60;;;6.40;1.00;;;;;;5066989;28;20479;-81
2021/04/09 02:45:59;;;;;;;4.07;3.23;;;6.30;1.00;;;;;;5048379;28;20474;-80
2021/04/09 02:48:30;;;;;;;5.20;3.60;;;6.30;1.00;;;;;;5047567;28;20465;-82
2021/04/09 02:51:00;;;;;;;4.63;3.13;;;6.20;1.00;;;;;;5064406;28;20501;-80
2021/04/09 02:53:30;;;;;;;4.47;3.20;;;6.30;1.00;;;;;;5064922;28;20474;-79
2021/04/09 02:56:02;;;;;;;5.80;4.50;;;6.40;1.00;;;;;;5056123;28;20512;-81
2021/04/09 02:58:31;;;;;;;5.53;3.77;;;6.00;1.00;;;;;;5063115;28;20481;-80
2021/04/09 03:01:00;;;;;;;5.10;3.80;;;5.90;1.00;;;;;;5052305;28;20970;-80
2021/04/09 03:03:28;;;;;;;7.30;4.63;;;5.90;1.00;;;;;;5058356;28;20475;-81
2021/04/09 03:05:55;;;;;;;6.57;4.13;;;6.00;1.00;;;;;;5054114;28;20468;-80
2021/04/09 03:08:23;;;;;;;7.80;5.43;;;6.30;1.00;;;;;;5054383;28;21022;-81
2021/04/09 03:10:50;;;;;;;10.87;5.20;;;6.10;1.00;;;;;;5046927;28;20485;-81
2021/04/09 03:13:19;;;;;;;6.40;4.67;;;6.20;1.00;;;;;;5060230;28;20618;-80
2021/04/09 03:15:51;;;;;;;6.20;4.50;;;6.30;1.00;;;;;;5053885;28;20949;-79
2021/04/09 03:18:21;;;;;;;5.43;4.97;;;6.30;1.00;;;;;;5048128;28;20498;-80
2021/04/09 03:20:49;;;;;;;6.93;4.00;;;6.20;1.00;;;;;;5059743;28;20491;-78
2021/04/09 03:23:17;;;;;;;7.83;3.70;;;6.20;1.00;;;;;;5055603;28;21014;-80
2021/04/09 03:25:44;;;;;;;7.00;4.33;;;6.20;1.00;;;;;;5055794;28;20855;-80
2021/04/09 03:28:11;;;;;;;6.60;5.87;;;6.20;1.00;;;;;;5046982;28;20460;-80
2021/04/09 03:30:40;;;;;;;6.30;5.00;;;6.10;1.00;;;;;;5050589;28;21023;-79
2021/04/09 03:33:07;;;;;;;8.63;4.60;;;6.40;1.00;;;;;;5050273;28;20529;-79
2021/04/09 03:35:34;;;;;;;30.33;13.27;;;6.10;1.00;;;;;;5056410;28;21002;-80
2021/04/09 03:38:01;;;;;;;18.63;8.60;;;6.10;1.00;;;;;;5053394;28;20462;-79
2021/04/09 03:40:28;;;;;;;12.80;6.60;;;6.10;1.00;;;;;;5057188;28;20466;-80
2021/04/09 03:42:56;;;;;;;7.10;4.70;;;6.00;1.00;;;;;;5046775;28;20497;-80
2021/04/09 03:45:23;;;;;;;7.13;5.20;;;6.00;1.00;;;;;;5054645;28;20466;-78
2021/04/09 03:47:51;;;;;;;6.00;4.40;;;5.90;1.00;;;;;;5054656;28;20480;-79
2021/04/09 03:50:18;;;;;;;6.77;5.20;;;6.10;1.00;;;;;;5053822;28;20462;-79
2021/04/09 03:52:46;;;;;;;8.23;5.70;;;5.90;1.00;;;;;;5061021;28;20574;-79
2021/04/09 03:55:14;;;;;;;7.97;5.80;;;5.90;1.00;;;;;;5054614;28;20483;-79
2021/04/09 03:57:41;;;;;;;7.80;6.27;;;5.90;1.00;;;;;;5057363;28;20555;-79
2021/04/09 04:00:10;;;;;;;9.03;5.50;;;5.80;1.00;;;;;;5054329;28;20472;-81
2021/04/09 04:02:37;;;;;;;8.50;5.97;;;5.80;1.00;;;;;;5052087;28;20563;-79
2021/04/09 04:05:07;;;;;;;9.60;6.10;;;5.70;1.00;;;;;;5047256;28;20457;-79
2021/04/09 04:07:35;;;;;;;8.65;5.68;;;5.70;1.00;;;;;;5059794;28;20456;-80
2021/04/09 04:10:03;;;;;;;9.63;5.97;;;5.70;1.00;;;;;;5050095;28;20707;-80
2021/04/09 04:12:31;;;;;;;12.27;7.20;;;5.70;1.00;;;;;;5042405;28;20886;-80
2021/04/09 04:14:59;;;;;;;7.30;6.00;;;5.80;1.00;;;;;;5051109;28;20480;-78
2021/04/09 04:17:26;;;;;;;11.95;6.72;;;5.70;1.00;;;;;;5045902;28;20468;-80
2021/04/09 04:19:53;;;;;;;7.83;6.00;;;5.70;1.00;;;;;;5053324;28;20208;-79
2021/04/09 04:22:21;;;;;;;9.43;6.00;;;6.00;1.00;;;;;;5051383;28;20541;-80
2021/04/09 04:24:48;;;;;;;9.90;5.90;;;5.70;1.00;;;;;;5053946;28;20468;-81
2021/04/09 04:27:16;;;;;;;8.13;5.37;;;5.70;1.00;;;;;;5053213;28;20464;-79
2021/04/09 04:29:43;;;;;;;9.50;6.10;;;5.90;1.00;;;;;;5056337;28;20461;-78
2021/04/09 04:32:10;;;;;;;10.32;6.40;;;5.70;1.00;;;;;;5050897;28;20234;-77
2021/04/09 04:34:38;;;;;;;6.10;4.80;;;5.70;1.00;;;;;;5044308;28;20781;-79
2021/04/09 04:37:06;;;;;;;7.68;5.40;;;5.90;1.00;;;;;;5050233;28;20248;-78
2021/04/09 04:39:34;;;;;;;9.00;5.60;;;5.70;1.00;;;;;;5055536;28;20198;-78
2021/04/09 04:42:01;;;;;;;9.10;4.57;;;5.70;1.00;;;;;;5048816;28;20804;-80
2021/04/09 04:44:28;;;;;;;6.03;4.90;;;5.70;1.00;;;;;;5055791;28;20481;-79
2021/04/09 04:46:55;;;;;;;5.88;4.80;;;5.80;1.00;;;;;;5053372;28;20466;-80
2021/04/09 04:49:23;;;;;;;6.22;4.93;;;5.80;1.00;;;;;;5057476;28;20983;-79
2021/04/09 04:51:50;;;;;;;10.88;5.38;;;5.90;1.00;;;;;;5054993;28;20732;-78
2021/04/09 04:54:17;;;;;;;7.53;5.00;;;6.10;1.00;;;;;;5053856;28;20216;-77
2021/04/09 04:57:01;;;;;;;8.98;6.30;;;5.80;1.00;;;;;;5056553;28;20564;-77
2021/04/09 04:59:29;;;;;;;10.20;5.27;;;5.90;1.00;;;;;;5054199;28;20236;-79
2021/04/09 05:01:56;;;;;;;7.40;5.82;;;5.90;1.00;;;;;;5052169;28;20818;-79
2021/04/09 05:04:24;;;;;;;7.33;6.03;;;5.80;1.00;;;;;;5051706;28;20629;-78
2021/04/09 05:06:51;;;;;;;7.25;5.22;;;5.80;1.00;;;;;;5053890;28;20843;-79
2021/04/09 05:09:18;;;;;;;7.47;5.40;;;5.80;1.00;;;;;;5054783;28;20732;-78
2021/04/09 05:11:45;;;;;;;8.90;5.50;;;5.90;1.00;;;;;;5050636;28;20482;-76
2021/04/09 05:14:13;;;;;;;5.82;5.30;;;5.80;1.00;;;;;;5056907;28;20208;-78
2021/04/09 05:16:41;;;;;;;7.95;5.25;;;5.80;1.00;;;;;;5046003;28;20209;-78
2021/04/09 05:19:10;;;;;;;7.10;5.00;;;5.60;1.00;;;;;;5048727;28;20215;-79
2021/04/09 05:21:37;;;;;;;5.70;4.90;;;5.90;1.00;;;;;;5042637;28;20672;-79
2021/04/09 05:24:05;;;;;;;7.07;4.90;;;5.90;1.00;;;;;;5059611;28;20477;-79
2021/04/09 05:26:32;;;;;;;5.97;4.60;;;5.90;1.00;;;;;;5050766;28;20481;-79
2021/04/09 05:29:00;;;;;;;8.27;4.45;;;5.90;1.00;;;;;;5053777;28;20215;-80
2021/04/09 05:31:28;;;;;;;5.33;4.80;;;5.90;1.00;;;;;;5053881;28;20228;-81
2021/04/09 05:33:55;;;;;;;5.13;3.70;;;5.90;1.00;;;;;;5051806;28;20502;-80
2021/04/09 05:36:23;;;;;;;5.07;4.57;;;6.00;1.00;;;;;;5058600;28;20466;-81
2021/04/09 05:38:50;;;;;;;6.03;4.57;;;6.00;1.00;;;;;;5047508;28;20504;-80
2021/04/09 05:41:18;;;;;;;6.80;4.50;;;6.00;1.00;;;;;;5053039;28;20212;-80
2021/04/09 05:43:45;;;;;;;6.15;4.43;;;6.10;1.00;;;;;;5059543;28;20913;-78
2021/04/09 05:46:12;;;;;;;4.23;3.73;;;6.20;1.00;;;;;;5055497;28;20221;-80
2021/04/09 05:48:41;;;;;;;6.07;4.07;;;6.20;1.00;;;;;;5042920;28;20490;-81
2021/04/09 05:51:08;;;;;;;7.30;5.03;;;6.20;1.00;;;;;;5054458;28;20491;-79
2021/04/09 05:53:35;;;;;;;6.50;4.80;;;6.40;1.00;;;;;;5054075;28;20494;-79
2021/04/09 05:56:02;;;;;;;4.82;4.20;;;6.30;1.00;;;;;;5050850;28;20462;-79
2021/04/09 05:58:30;;;;;;;5.67;4.07;;;6.40;1.00;;;;;;5055990;28;20214;-79
2021/04/09 06:00:57;;;;;;;6.00;3.70;;;6.40;1.00;;;;;;5057016;28;20464;-80
2021/04/09 06:03:24;;;;;;;8.77;4.00;;;6.40;1.00;;;;;;5049073;28;20489;-80
2021/04/09 06:05:52;;;;;;;6.30;3.80;;;6.50;1.00;;;;;;5051779;28;20549;-78
2021/04/09 06:08:19;;;;;;;6.30;4.65;;;6.50;1.00;;;;;;5053529;28;20452;-78
2021/04/09 06:10:46;;;;;;;7.97;3.90;;;6.40;1.00;;;;;;5052935;28;20205;-73
2021/04/09 06:13:15;;;;;;;6.15;4.18;;;6.60;1.00;;;;;;5042759;28;21070;-77
2021/04/09 06:15:42;;;;;;;6.05;5.10;;;6.70;1.00;;;;;;5042029;28;20447;-77
2021/04/09 06:18:11;;;;;;;4.70;4.27;;;6.80;1.00;;;;;;5050949;28;20241;-78
2021/04/09 06:20:38;;;;;;;5.30;3.37;;;6.90;1.00;;;;;;5052580;28;21018;-77
2021/04/09 06:23:06;;;;;;;5.90;4.87;;;7.00;1.00;;;;;;5051526;28;20484;-78
2021/04/09 06:25:34;;;;;;;4.13;3.83;;;7.10;1.00;;;;;;5059199;28;20471;-77
2021/04/09 06:28:01;;;;;;;4.50;4.10;;;7.20;1.00;;;;;;5052477;28;20457;-79
2021/04/09 06:30:28;;;;;;;3.50;3.20;;;7.30;1.00;;;;;;5045127;28;20464;-77
2021/04/09 06:32:55;;;;;;;5.60;3.30;;;7.50;1.00;;;;;;5042755;28;20491;-77
2021/04/09 06:35:23;;;;;;;3.33;2.60;;;7.60;1.00;;;;;;5044773;28;20474;-77
2021/04/09 06:37:50;;;;;;;4.90;3.13;;;7.70;1.00;;;;;;5043037;28;20475;-81
2021/04/09 06:40:20;;;;;;;3.33;2.83;;;7.80;1.00;;;;;;5041629;28;20478;-78
2021/04/09 06:42:52;;;;;;;3.60;3.10;;;7.80;1.00;;;;;;5036311;28;21064;-77
2021/04/09 06:45:20;;;;;;;4.90;2.90;;;8.00;1.00;;;;;;5043197;28;20456;-76
2021/04/09 06:47:48;;;;;;;6.03;3.80;;;8.00;1.00;;;;;;5037877;28;20473;-78
2021/04/09 06:50:15;;;;;;;5.77;4.23;;;8.30;1.00;;;;;;5042413;28;20470;-78
2021/04/09 06:52:43;;;;;;;5.13;4.63;;;8.20;1.00;;;;;;5034521;28;20487;-79
2021/04/09 06:55:11;;;;;;;5.43;4.10;;;8.20;1.00;;;;;;5044525;28;20513;-78
2021/04/09 06:57:40;;;;;;;7.93;4.77;;;8.30;1.00;;;;;;5035432;28;20457;-79
2021/04/09 07:00:10;;;;;;;5.87;3.50;;;8.40;1.00;;;;;;5042962;28;20556;-78
2021/04/09 07:02:41;;;;;;;5.47;3.77;;;8.40;1.00;;;;;;5040453;28;20487;-78
2021/04/09 07:05:09;;;;;;;5.17;3.33;;;8.40;1.00;;;;;;5040860;28;20466;-78
2021/04/09 07:07:36;;;;;;;3.67;2.60;;;8.50;1.00;;;;;;5035530;28;20478;-78
2021/04/09 07:10:05;;;;;;;5.10;2.20;;;8.40;1.00;;;;;;5049770;28;20464;-78
2021/04/09 07:12:34;;;;;;;3.60;2.83;;;8.50;1.00;;;;;;5048539;28;20518;-80
2021/04/09 07:15:05;;;;;;;5.20;2.70;;;8.40;1.00;;;;;;5055110;28;20467;-80
2021/04/09 07:17:35;;;;;;;4.10;2.93;;;8.40;1.00;;;;;;5044431;28;20462;-79
2021/04/09 07:20:17;;;;;;;4.60;2.50;;;8.60;1.00;;;;;;5042073;28;20473;-78
2021/04/09 07:22:46;;;;;;;2.53;2.33;;;8.60;1.00;;;;;;5048934;28;20470;-78
2021/04/09 07:25:15;;;;;;;6.70;4.00;;;8.70;1.00;;;;;;5053909;28;20463;-78
2021/04/09 07:27:46;;;;;;;3.43;2.20;;;8.60;1.00;;;;;;5045380;28;21062;-76
2021/04/09 07:30:18;;;;;;;2.73;2.07;;;8.60;1.00;;;;;;5050137;28;20460;-78
2021/04/09 07:32:46;;;;;;;2.43;2.23;;;8.70;1.00;;;;;;5046909;28;20500;-81
2021/04/09 07:35:15;;;;;;;4.33;2.20;;;8.70;1.00;;;;;;5044652;28;20477;-81
2021/04/09 07:37:51;;;;;;;4.20;2.03;;;8.80;1.00;;;;;;5046001;28;20478;-80
2021/04/09 07:40:22;;;;;;;3.03;2.73;;;8.90;1.00;;;;;;5056839;28;20456;-78
2021/04/09 07:42:49;;;;;;;2.73;2.50;;;8.80;1.00;;;;;;5050397;28;20587;-79
2021/04/09 07:45:20;;;;;;;2.70;2.50;;;8.80;1.00;;;;;;5048846;28;20472;-77
2021/04/09 07:47:56;;;;;;;3.63;2.87;;;8.90;1.00;;;;;;5044123;28;20466;-78
2021/04/09 07:50:40;;;;;;;2.53;2.20;;;9.00;1.00;;;;;;5045688;28;20498;-78
2021/04/09 07:53:08;;;;;;;2.50;2.30;;;9.30;1.00;;;;;;5052292;28;20571;-78
2021/04/09 07:55:37;;;;;;;2.80;2.50;;;9.20;1.00;;;;;;5046479;28;20462;-78
2021/04/09 07:58:16;;;;;;;4.03;2.70;;;9.30;1.00;;;;;;5052784;28;20473;-77
2021/04/09 08:00:44;;;;;;;5.00;2.70;;;9.30;1.00;;;;;;5037197;28;20472;-78
2021/04/09 08:03:28;;;;;;;8.10;2.60;;;9.40;1.00;;;;;;5053844;28;20477;-77
2021/04/09 08:06:05;;;;;;;6.27;2.40;;;9.30;1.00;;;;;;5039204;28;20547;-78
2021/04/09 08:08:32;;;;;;;4.60;2.67;;;9.20;1.00;;;;;;5038109;28;20467;-79
2021/04/09 08:11:18;;;;;;;4.97;3.10;;;9.30;1.00;;;;;;5045354;28;20471;-79
2021/04/09 08:13:56;;;;;;;4.90;3.03;;;9.40;1.00;;;;;;5045934;28;20468;-79
2021/04/09 08:16:29;;;;;;;4.80;2.40;;;9.40;1.00;;;;;;5045211;28;20467;-78
2021/04/09 08:18:58;;;;;;;3.07;2.73;;;9.50;1.00;;;;;;5042009;28;20475;-78
2021/04/09 08:21:27;;;;;;;3.20;2.90;;;9.60;1.00;;;;;;5050121;28;20456;-78
2021/04/09 08:23:56;;;;;;;5.93;3.50;;;9.60;1.00;;;;;;5052623;28;21496;-77
2021/04/09 08:26:24;;;;;;;4.13;2.67;;;9.50;1.00;;;;;;5042302;28;20484;-79
2021/04/09 08:28:52;;;;;;;3.60;2.53;;;9.70;1.00;;;;;;5039316;28;20449;-78
2021/04/09 08:31:20;;;;;;;4.03;2.20;;;9.60;1.00;;;;;;5049438;28;20504;-79
2021/04/09 08:33:48;;;;;;;4.20;2.67;;;9.50;1.00;;;;;;5043792;28;20926;-79
2021/04/09 08:36:17;;;;;;;3.87;2.50;;;9.50;1.00;;;;;;5049187;28;21012;-79
2021/04/09 08:38:44;;;;;;;4.53;2.80;;;9.40;1.00;;;;;;5045022;28;20456;-78
2021/04/09 08:41:14;;;;;;;7.80;3.10;;;9.40;1.00;;;;;;5042941;28;20954;-79
2021/04/09 08:43:41;;;;;;;3.50;2.50;;;9.50;1.00;;;;;;5054633;28;21332;-79
2021/04/09 08:46:09;;;;;;;5.43;2.47;;;9.60;1.00;;;;;;5051245;28;20454;-80
2021/04/09 08:48:38;;;;;;;4.27;2.87;;;9.60;1.00;;;;;;5049515;28;20530;-78
2021/04/09 08:51:09;;;;;;;2.53;2.27;;;9.60;1.00;;;;;;5045225;28;20514;-79
2021/04/09 08:53:36;;;;;;;3.20;2.43;;;9.40;1.00;;;;;;5048823;28;21087;-80
2021/04/09 08:56:04;;;;;;;2.60;2.37;;;9.50;1.00;;;;;;5055689;28;21121;-79
2021/04/09 08:58:44;;;;;;;3.60;2.10;;;9.50;1.00;;;;;;5049990;28;20451;-79
2021/04/09 09:01:12;;;;;;;3.83;2.10;;;9.50;1.00;;;;;;5044778;28;20458;-80
2021/04/09 09:03:40;;;;;;;3.67;2.17;;;9.50;1.00;;;;;;5054747;28;20557;-80
2021/04/09 09:06:09;;;;;;;3.30;2.23;;;9.40;1.00;;;;;;5050007;28;20473;-79
2021/04/09 09:08:59;;;;;;;3.47;2.30;;;9.30;1.00;;;;;;5045839;28;20947;-79
2021/04/09 09:11:52;;;;;;;2.50;2.00;;;9.40;1.00;;;;;;5040256;28;21658;-79
2021/04/09 09:14:40;;;;;;;2.90;1.77;;;9.60;1.00;;;;;;5038143;28;20477;-79
2021/04/09 09:17:38;;;;;;;2.57;2.37;;;9.70;1.00;;;;;;5039972;28;20464;-79
2021/04/09 09:20:22;;;;;;;2.90;1.70;;;9.70;1.00;;;;;;5039386;28;20471;-79
2021/04/09 09:22:55;;;;;;;3.50;2.43;;;9.60;1.00;;;;;;5038028;28;20552;-79
2021/04/09 09:25:37;;;;;;;2.20;2.00;;;9.60;1.00;;;;;;5044524;28;20477;-78
2021/04/09 09:28:10;;;;;;;3.63;2.00;;;9.70;1.00;;;;;;5044953;28;20971;-79
2021/04/09 09:30:38;;;;;;;3.20;1.97;;;9.90;1.00;;;;;;5047668;28;20477;-80
2021/04/09 09:33:27;;;;;;;6.30;2.37;;;9.90;1.00;;;;;;5043564;28;20499;-79
2021/04/09 09:35:58;;;;;;;3.33;1.70;;;9.90;1.00;;;;;;5049631;28;20471;-80
2021/04/09 09:38:59;;;;;;;3.13;2.00;;;10.00;1.00;;;;;;5047482;28;20472;-77
2021/04/09 09:41:37;;;;;;;1.60;1.50;;;10.10;1.00;;;;;;4986843;28;20474;-79
2021/04/09 09:44:27;;;;;;;2.67;1.90;;;10.20;1.00;;;;;;4986861;28;20493;-79
2021/04/09 09:46:56;;;;;;;4.53;1.80;;;10.30;1.00;;;;;;5021335;28;20492;-79
2021/04/09 09:49:26;;;;;;;1.60;1.33;;;10.40;1.00;;;;;;5046729;28;20576;-79
2021/04/09 09:51:53;;;;;;;2.57;2.10;;;10.60;1.00;;;;;;5047337;28;20498;-80
2021/04/09 09:54:29;;;;;;;3.23;2.00;;;10.60;1.00;;;;;;5048750;28;20470;-79
2021/04/09 09:56:57;;;;;;;2.13;1.93;;;10.60;1.00;;;;;;5041596;28;20556;-79
2021/04/09 09:59:28;;;;;;;3.17;2.00;;;10.60;1.00;;;;;;5043805;28;20467;-80
2021/04/09 10:01:57;;;;;;;3.20;2.30;;;10.60;1.00;;;;;;5044569;28;20480;-78
2021/04/09 10:04:26;;;;;;;3.77;1.67;;;10.80;1.00;;;;;;5041215;28;20468;-79
2021/04/09 10:06:54;;;;;;;3.03;1.60;;;10.90;1.00;;;;;;5043635;28;20451;-78
2021/04/09 10:09:30;;;;;;;2.00;1.90;;;10.80;1.00;;;;;;5046719;28;20459;-79
2021/04/09 10:11:59;;;;;;;1.90;1.77;;;10.90;1.00;;;;;;5044315;28;20520;-78
2021/04/09 10:14:28;;;;;;;3.10;1.60;;;10.90;1.00;;;;;;5047298;28;20461;-78
2021/04/09 10:16:58;;;;;;;2.50;1.70;;;11.00;1.00;;;;;;5047464;28;20472;-77
2021/04/09 10:19:26;;;;;;;3.20;2.00;;;11.00;1.00;;;;;;5050383;28;20461;-78
2021/04/09 10:21:54;;;;;;;2.70;2.03;;;11.00;1.00;;;;;;5044999;28;20542;-77
2021/04/09 10:24:37;;;;;;;1.90;1.60;;;11.10;1.00;;;;;;5044651;28;20457;-78
2021/04/09 10:27:06;;;;;;;2.20;2.00;;;11.20;1.00;;;;;;5044971;28;20492;-77
2021/04/09 10:29:36;;;;;;;3.23;2.20;;;11.30;1.00;;;;;;5042487;28;20467;-79
2021/04/09 10:32:05;;;;;;;4.10;1.70;;;11.30;1.00;;;;;;5046022;28;20939;-79
2021/04/09 10:34:34;;;;;;;1.83;1.50;;;11.30;1.00;;;;;;5042197;28;20466;-78
2021/04/09 10:37:05;;;;;;;2.90;2.57;;;11.30;1.00;;;;;;5047101;28;20491;-77
2021/04/09 10:39:33;;;;;;;4.60;1.93;;;11.40;1.00;;;;;;5040239;28;20464;-78
2021/04/09 10:42:16;;;;;;;3.70;1.77;;;11.40;1.00;;;;;;5044417;28;20494;-78
2021/04/09 10:44:43;;;;;;;2.00;1.80;;;11.50;1.00;;;;;;5046054;28;20468;-79
2021/04/09 10:47:12;;;;;;;2.53;1.80;;;11.50;1.00;;;;;;5044955;28;20549;-80
2021/04/09 10:49:41;;;;;;;2.00;1.80;;;11.50;1.00;;;;;;5040191;28;20473;-77
2021/04/09 10:52:10;;;;;;;4.70;2.57;;;11.40;1.00;;;;;;5046524;28;20520;-77
2021/04/09 10:54:39;;;;;;;1.73;1.60;;;11.50;1.00;;;;;;5052736;28;20467;-77
2021/04/09 10:57:09;;;;;;;2.03;1.70;;;11.60;1.00;;;;;;5060645;28;20503;-78
2021/04/09 10:59:38;;;;;;;2.27;1.60;;;11.60;1.00;;;;;;5051792;28;20457;-79
2021/04/09 11:02:08;;;;;;;1.80;1.70;;;11.60;1.00;;;;;;5046345;28;20467;-80
2021/04/09 11:04:38;;;;;;;6.20;2.07;;;11.60;1.00;;;;;;5040549;28;20528;-78
2021/04/09 11:07:08;;;;;;;3.40;1.83;;;11.70;1.00;;;;;;5045303;28;20474;-79
2021/04/09 11:09:41;;;;;;;5.07;2.13;;;11.70;1.00;;;;;;5050161;28;20538;-79
2021/04/09 11:12:19;;;;;;;3.10;1.80;;;11.70;1.00;;;;;;5049402;28;21127;-78
2021/04/09 11:14:47;;;;;;;2.10;1.70;;;11.60;1.00;;;;;;5056709;28;20548;-78
2021/04/09 11:17:23;;;;;;;2.13;1.60;;;11.70;1.00;;;;;;5051206;28;20465;-77
2021/04/09 11:19:54;;;;;;;2.50;2.20;;;11.70;1.00;;;;;;5046267;28;20966;-78
2021/04/09 11:22:22;;;;;;;2.90;1.50;;;12.00;1.00;;;;;;5046051;28;20218;-77
2021/04/09 11:24:58;;;;;;;6.37;1.90;;;12.20;1.00;;;;;;5045677;28;21378;-79
2021/04/09 11:27:30;;;;;;;2.93;1.60;;;12.20;1.00;;;;;;5043734;28;20833;-80
2021/04/09 11:30:10;;;;;;;2.57;1.57;;;12.30;1.00;;;;;;5045054;28;20591;-79
2021/04/09 11:32:42;;;;;;;1.60;1.50;;;12.30;1.00;;;;;;5041691;28;20484;-81
2021/04/09 11:35:11;;;;;;;1.90;1.70;;;12.30;1.00;;;;;;5047434;28;20971;-81
2021/04/09 11:37:46;;;;;;;4.47;1.50;;;12.40;1.00;;;;;;5050639;28;20196;-79
2021/04/09 11:40:17;;;;;;;2.10;1.90;;;12.50;1.00;;;;;;5048699;28;20458;-80
2021/04/09 11:42:45;;;;;;;2.50;1.10;;;12.60;1.00;;;;;;5053889;28;21131;-82
2021/04/09 11:45:15;;;;;;;2.50;1.50;;;12.70;1.00;;;;;;5054084;28;20566;-80
2021/04/09 11:47:43;;;;;;;1.70;1.50;;;12.70;1.00;;;;;;5055651;28;21069;-84
2021/04/09 11:50:15;;;;;;;3.10;1.20;;;12.80;1.00;;;;;;5046694;28;20465;-83
2021/04/09 11:52:50;;;;;;;2.03;1.27;;;12.80;1.00;;;;;;5051492;28;20481;-78
2021/04/09 11:55:21;;;;;;;1.80;1.63;;;12.90;1.00;;;;;;5051724;28;20949;-80
2021/04/09 11:57:48;;;;;;;2.20;1.50;;;12.90;1.00;;;;;;5050561;28;20460;-79
2021/04/09 12:00:25;;;;;;;1.53;1.30;;;13.10;1.00;;;;;;5044718;28;20455;-80
2021/04/09 12:02:54;;;;;;;1.87;1.30;;;13.20;1.00;;;;;;5049229;28;20496;-79
2021/04/09 12:05:23;;;;;;;2.20;1.40;;;13.30;1.00;;;;;;5050556;28;20545;-79
2021/04/09 12:07:50;;;;;;;2.27;1.20;;;13.60;1.00;;;;;;5052586;28;20833;-81
2021/04/09 12:10:22;;;;;;;3.20;1.20;;;13.70;1.00;;;;;;5048122;28;21043;-79
2021/04/09 12:12:50;;;;;;;1.40;1.13;;;13.70;1.00;;;;;;5044208;28;20494;-78
2021/04/09 12:15:21;;;;;;;1.67;1.20;;;13.80;1.00;;;;;;5049422;28;20467;-79
2021/04/09 12:17:49;;;;;;;3.60;1.63;;;13.90;1.00;;;;;;5050642;28;20478;-77
2021/04/09 12:20:18;;;;;;;1.30;1.20;;;14.00;1.00;;;;;;5050430;28;21312;-78
2021/04/09 12:22:46;;;;;;;2.60;1.53;;;14.00;1.00;;;;;;5054745;28;20471;-76
2021/04/09 12:25:17;;;;;;;1.87;1.33;;;14.10;1.00;;;;;;5057095;28;21393;-77
2021/04/09 12:27:46;;;;;;;3.63;1.20;;;14.10;1.00;;;;;;5044449;28;20463;-76
2021/04/09 12:30:15;;;;;;;1.70;1.50;;;14.10;1.00;;;;;;5045787;28;20944;-76
2021/04/09 12:32:43;;;;;;;1.90;1.77;;;14.20;1.00;;;;;;5048571;28;21059;-78
2021/04/09 12:35:11;;;;;;;2.70;1.10;;;14.30;1.00;;;;;;5045573;28;20690;-79
2021/04/09 12:37:39;;;;;;;6.83;1.03;;;14.40;1.00;;;;;;5033803;28;22544;-75
2021/04/09 12:40:08;;;;;;;1.93;1.60;;;14.50;1.00;;;;;;5038282;28;20488;-76
2021/04/09 12:42:35;;;;;;;1.13;1.00;;;14.50;1.00;;;;;;5038639;28;20484;-74
2021/04/09 12:45:05;;;;;;;2.37;1.40;;;14.60;1.00;;;;;;5045015;28;20473;-75
2021/04/09 12:47:32;;;;;;;1.30;1.20;;;14.60;1.00;;;;;;5039779;28;20937;-75
2021/04/09 12:49:59;;;;;;;4.50;1.30;;;14.70;1.00;;;;;;5046525;28;20853;-75
2021/04/09 12:52:26;;;;;;;2.20;1.60;;;14.60;1.00;;;;;;5044112;28;20508;-74
2021/04/09 12:54:54;;;;;;;1.40;1.20;;;14.60;1.00;;;;;;5046137;28;20478;-74
2021/04/09 12:57:21;;;;;;;3.20;1.30;;;14.70;1.00;;;;;;5040091;28;20550;-76
2021/04/09 12:59:48;;;;;;;1.60;1.00;;;14.60;1.00;;;;;;5044184;28;20460;-74
2021/04/09 13:02:31;;;;;;;1.40;1.10;;;14.50;1.00;;;;;;5040069;28;20503;-77
2021/04/09 13:04:59;;;;;;;1.40;1.10;;;14.50;1.00;;;;;;5060181;28;20460;-76
2021/04/09 13:07:26;;;;;;;1.77;1.13;;;14.50;1.00;;;;;;5048721;28;20476;-77
2021/04/09 13:09:54;;;;;;;1.67;1.00;;;14.60;1.00;;;;;;5053797;28;20484;-80
2021/04/09 13:12:21;;;;;;;2.90;1.30;;;14.50;1.00;;;;;;5046316;28;21009;-78
2021/04/09 13:14:48;;;;;;;2.63;1.10;;;14.60;1.00;;;;;;5059057;28;20470;-78
2021/04/09 13:17:17;;;;;;;1.77;1.20;;;14.40;1.00;;;;;;5051222;28;20453;-78
2021/04/09 13:19:45;;;;;;;2.50;1.20;;;14.40;1.00;;;;;;5040625;28;20467;-79